createdAt,value
2023-10-07T00:01:32.876Z,98085.56
2023-10-07T00:04:07.253Z,98085.64
2023-10-07T00:06:39.416Z,98080.28
2023-10-07T00:09:12.374Z,98091.04
2023-10-07T00:11:47.670Z,98095.91
2023-10-07T00:14:18.925Z,98088.65
2023-10-07T00:16:51.663Z,98082.52
2023-10-07T00:19:23.165Z,98080.79
2023-10-07T00:22:00.513Z,98088.52
2023-10-07T00:24:38.304Z,98092.20
2023-10-07T00:27:23.175Z,98084.64
2023-10-07T00:29:56.159Z,98074.98
2023-10-07T00:32:34.134Z,98077.34
2023-10-07T00:35:08.000Z,98077.32
2023-10-07T00:37:44.869Z,98076.78
2023-10-07T00:40:31.981Z,98074.80
2023-10-07T00:43:08.677Z,98068.16
2023-10-07T00:45:39.839Z,98066.73
2023-10-07T00:48:12.774Z,98058.70
2023-10-07T00:50:44.909Z,98049.18
2023-10-07T00:53:25.232Z,98034.20
2023-10-07T00:55:56.515Z,98031.49
2023-10-07T00:58:29.732Z,98037.14
2023-10-07T01:01:06.623Z,98031.45
2023-10-07T01:03:49.704Z,98021.23
2023-10-07T01:06:32.527Z,98020.90
2023-10-07T01:09:16.052Z,98013.96
2023-10-07T01:11:47.981Z,98005.16
2023-10-07T01:14:22.086Z,98014.11
2023-10-07T01:16:53.557Z,98019.64
2023-10-07T01:19:31.247Z,98014.61
2023-10-07T01:22:10.870Z,98021.26
2023-10-07T01:24:57.660Z,98016.73
2023-10-07T01:27:42.998Z,98018.27
2023-10-07T01:30:18.401Z,98019.65
2023-10-07T01:32:55.785Z,98019.08
2023-10-07T01:35:33.649Z,98020.60
2023-10-07T01:38:09.475Z,98009.27
2023-10-07T01:40:55.648Z,97999.79
2023-10-07T01:43:27.913Z,97998.13
2023-10-07T01:45:59.591Z,97999.27
2023-10-07T01:48:31.202Z,97995.55
2023-10-07T01:51:06.271Z,98001.79
2023-10-07T01:53:39.509Z,98001.27
2023-10-07T01:56:14.027Z,98002.60
2023-10-07T01:58:47.184Z,98000.61
2023-10-07T02:01:20.447Z,98000.81
2023-10-07T02:03:52.236Z,97996.27
2023-10-07T02:06:23.514Z,97993.72
2023-10-07T02:08:55.143Z,97988.42
2023-10-07T02:11:31.879Z,97989.88
2023-10-07T02:14:04.809Z,97989.67
2023-10-07T02:16:36.887Z,97988.92
2023-10-07T02:19:08.917Z,97992.30
2023-10-07T02:21:42.522Z,97986.71
2023-10-07T02:24:16.900Z,97985.27
2023-10-07T02:26:54.852Z,97982.34
2023-10-07T02:29:26.441Z,97981.41
2023-10-07T02:32:08.299Z,97977.61
2023-10-07T02:34:52.576Z,97974.69
2023-10-07T02:37:27.039Z,97967.92
2023-10-07T02:40:02.982Z,97968.78
2023-10-07T02:42:34.218Z,97968.60
2023-10-07T02:45:21.249Z,97971.63
2023-10-07T02:47:55.302Z,97970.58
2023-10-07T02:50:27.332Z,97964.67
2023-10-07T02:53:02.312Z,97959.43
2023-10-07T02:55:40.006Z,97955.42
2023-10-07T02:58:13.522Z,97960.71
2023-10-07T03:00:53.216Z,97958.17
2023-10-07T03:03:34.813Z,97958.23
2023-10-07T03:06:08.290Z,97951.79
2023-10-07T03:08:48.352Z,97951.76
2023-10-07T03:11:25.622Z,97951.21
2023-10-07T03:13:59.586Z,97951.02
2023-10-07T03:16:30.874Z,97953.01
2023-10-07T03:19:09.130Z,97956.09
2023-10-07T03:22:10.271Z,97957.08
2023-10-07T03:24:49.678Z,97947.83
2023-10-07T03:27:26.752Z,97943.54
2023-10-07T03:30:25.148Z,97947.14
2023-10-07T03:32:57.092Z,97953.77
2023-10-07T03:36:00.672Z,97950.96
2023-10-07T03:38:32.235Z,97951.11
2023-10-07T03:41:06.229Z,97947.08
2023-10-07T03:43:38.872Z,97943.15
2023-10-07T03:46:10.218Z,97945.25
2023-10-07T03:48:42.148Z,97948.42
2023-10-07T03:51:13.903Z,97948.02
2023-10-07T03:53:46.933Z,97943.84
2023-10-07T03:56:21.842Z,97940.22
2023-10-07T03:58:54.453Z,97942.52
2023-10-07T04:01:28.297Z,97939.90
2023-10-07T04:04:00.894Z,97946.72
2023-10-07T04:06:35.871Z,97938.27
2023-10-07T04:09:13.190Z,97938.20
2023-10-07T04:11:49.720Z,97936.77
2023-10-07T04:14:28.898Z,97933.05
2023-10-07T04:17:05.501Z,97934.92
2023-10-07T04:19:40.339Z,97935.59
2023-10-07T04:22:12.485Z,97935.91
2023-10-07T04:24:45.816Z,97933.37
2023-10-07T04:27:21.667Z,97928.06
2023-10-07T04:29:55.081Z,97932.73
2023-10-07T04:32:27.098Z,97936.09
2023-10-07T04:35:17.961Z,97936.01
2023-10-07T04:37:56.369Z,97933.52
2023-10-07T04:40:44.555Z,97931.23
2023-10-07T04:43:37.542Z,97933.38
2023-10-07T04:46:23.087Z,97926.48
2023-10-07T04:49:00.924Z,97929.47
2023-10-07T04:51:49.078Z,97929.04
2023-10-07T04:54:22.867Z,97925.21
2023-10-07T04:57:02.279Z,97923.94
2023-10-07T04:59:33.746Z,97923.31
2023-10-07T05:02:11.574Z,97924.48
2023-10-07T05:04:50.259Z,97922.83
2023-10-07T05:07:28.135Z,97924.46
2023-10-07T05:09:59.608Z,97920.93
2023-10-07T05:12:30.874Z,97924.27
2023-10-07T05:15:01.942Z,97934.95
2023-10-07T05:17:37.488Z,97943.20
2023-10-07T05:20:28.271Z,97945.04
2023-10-07T05:23:01.932Z,97948.56
2023-10-07T05:25:37.340Z,97947.23
2023-10-07T05:28:12.284Z,97958.30
2023-10-07T05:30:51.612Z,97964.77
2023-10-07T05:33:26.164Z,97961.20
2023-10-07T05:36:05.253Z,97960.73
2023-10-07T05:38:36.861Z,97961.86
2023-10-07T05:41:13.630Z,97957.96
2023-10-07T05:43:49.874Z,97957.80
2023-10-07T05:46:21.576Z,97954.42
2023-10-07T05:48:53.416Z,97957.18
2023-10-07T05:51:24.518Z,97963.39
2023-10-07T05:53:54.122Z,97970.11
2023-10-07T05:56:25.181Z,97971.88
2023-10-07T05:58:59.036Z,97974.75
2023-10-07T06:01:32.476Z,97979.45
2023-10-07T06:04:03.681Z,97975.36
2023-10-07T06:06:35.214Z,97978.39
2023-10-07T06:09:06.870Z,97978.00
2023-10-07T06:11:38.549Z,97980.58
2023-10-07T06:14:09.701Z,97978.70
2023-10-07T06:16:43.878Z,97979.17
2023-10-07T06:19:15.244Z,97980.30
2023-10-07T06:21:52.317Z,97979.13
2023-10-07T06:24:24.935Z,97964.23
2023-10-07T06:26:56.515Z,97958.08
2023-10-07T06:29:33.301Z,97957.01
2023-10-07T06:32:23.629Z,97962.29
2023-10-07T06:34:57.724Z,97972.37
2023-10-07T06:37:31.166Z,97976.60
2023-10-07T06:40:22.895Z,97974.52
2023-10-07T06:42:57.179Z,97969.39
2023-10-07T06:45:37.054Z,97971.64
2023-10-07T06:48:10.842Z,97973.98
2023-10-07T06:50:43.003Z,97969.36
2023-10-07T06:53:23.979Z,97970.78
2023-10-07T06:55:56.367Z,97967.81
2023-10-07T06:58:27.619Z,97972.17
2023-10-07T07:01:10.728Z,97971.15
2023-10-07T07:03:43.374Z,97964.40
2023-10-07T07:06:19.481Z,97968.14
2023-10-07T07:08:52.146Z,97972.27
2023-10-07T07:11:24.623Z,97975.16
2023-10-07T07:13:56.409Z,97972.55
2023-10-07T07:16:28.252Z,97973.98
2023-10-07T07:19:00.599Z,97981.80
2023-10-07T07:21:34.040Z,97985.34
2023-10-07T07:24:05.484Z,97985.61
2023-10-07T07:26:41.070Z,97988.38
2023-10-07T07:29:18.347Z,97990.36
2023-10-07T07:31:49.369Z,97995.29
2023-10-07T07:34:27.789Z,97994.11
2023-10-07T07:37:04.909Z,97991.96
2023-10-07T07:39:37.320Z,97990.73
2023-10-07T07:42:17.974Z,97990.06
2023-10-07T07:44:58.659Z,97981.31
2023-10-07T07:47:32.820Z,97977.45
2023-10-07T07:50:07.818Z,97979.15
2023-10-07T07:52:41.130Z,97979.36
2023-10-07T07:55:16.031Z,97986.05
2023-10-07T07:57:47.355Z,97978.99
2023-10-07T08:00:21.758Z,97968.73
2023-10-07T08:02:56.692Z,97967.05
2023-10-07T08:05:35.470Z,97966.80
2023-10-07T08:08:10.721Z,97955.87
2023-10-07T08:10:42.002Z,97948.77
2023-10-07T08:13:13.104Z,97946.33
2023-10-07T08:15:48.449Z,97943.80
2023-10-07T08:18:24.085Z,97939.30
2023-10-07T08:20:58.052Z,97933.30
2023-10-07T08:23:35.360Z,97933.02
2023-10-07T08:26:13.671Z,97925.66
2023-10-07T08:28:47.225Z,97923.30
2023-10-07T08:31:20.152Z,97932.48
2023-10-07T08:34:05.240Z,97937.29
2023-10-07T08:36:37.754Z,97937.61
2023-10-07T08:39:10.712Z,97932.91
2023-10-07T08:41:42.556Z,97934.07
2023-10-07T08:44:16.494Z,97934.65
2023-10-07T08:46:54.231Z,97938.98
2023-10-07T08:49:27.375Z,97950.65
2023-10-07T08:52:00.672Z,97946.77
2023-10-07T08:54:38.807Z,97959.52
2023-10-07T08:57:11.858Z,97958.05
2023-10-07T08:59:44.504Z,97957.88
2023-10-07T09:02:27.937Z,97957.88
2023-10-07T09:05:07.265Z,97957.06
2023-10-07T09:07:38.782Z,97947.98
2023-10-07T09:10:16.453Z,97937.17
2023-10-07T09:12:51.102Z,97932.10
2023-10-07T09:15:28.437Z,97929.41
2023-10-07T09:18:05.189Z,97923.20
2023-10-07T09:20:46.608Z,97929.42
2023-10-07T09:23:21.264Z,97928.23
2023-10-07T09:25:53.484Z,97924.83
2023-10-07T09:28:32.045Z,97913.91
2023-10-07T09:31:07.383Z,97913.38
2023-10-07T09:33:43.006Z,97905.39
2023-10-07T09:36:35.536Z,97898.95
2023-10-07T09:39:17.671Z,97894.99
2023-10-07T09:42:04.295Z,97889.71
2023-10-07T09:44:39.326Z,97891.36
2023-10-07T09:47:21.887Z,97885.55
2023-10-07T09:50:00.581Z,97891.45
2023-10-07T09:52:34.850Z,97889.05
2023-10-07T09:55:27.231Z,97892.61
2023-10-07T09:58:12.654Z,97899.50
2023-10-07T10:01:05.094Z,97896.70
2023-10-07T10:04:01.574Z,97903.04
2023-10-07T10:07:01.787Z,97909.73
2023-10-07T10:09:46.944Z,97905.11
2023-10-07T10:12:28.572Z,97913.64
2023-10-07T10:15:19.880Z,97913.23
2023-10-07T10:17:55.241Z,97912.62
2023-10-07T10:20:43.930Z,97917.06
2023-10-07T10:23:20.656Z,97913.61
2023-10-07T10:25:55.231Z,97907.50
2023-10-07T10:28:29.079Z,97909.34
2023-10-07T10:31:00.067Z,97912.77
2023-10-07T10:33:33.002Z,97909.80
2023-10-07T10:36:08.917Z,97909.47
2023-10-07T10:38:42.258Z,97905.04
2023-10-07T10:41:14.826Z,97904.71
2023-10-07T10:43:45.931Z,97904.29
2023-10-07T10:46:18.427Z,97910.69
2023-10-07T10:48:54.751Z,97907.39
2023-10-07T10:51:34.410Z,97903.09
2023-10-07T10:54:06.328Z,97894.95
2023-10-07T10:56:48.590Z,97891.71
2023-10-07T10:59:20.376Z,97893.81
2023-10-07T11:01:52.306Z,97896.41
2023-10-07T11:04:23.616Z,97896.42
2023-10-07T11:06:58.679Z,97898.09
2023-10-07T11:09:37.336Z,97896.50
2023-10-07T11:12:14.279Z,97893.69
2023-10-07T11:14:45.975Z,97888.85
2023-10-07T11:17:18.171Z,97879.30
2023-10-07T11:19:52.873Z,97876.20
2023-10-07T11:22:24.974Z,97875.17
2023-10-07T11:24:56.388Z,97869.63
2023-10-07T11:27:28.183Z,97871.31
2023-10-07T11:30:04.750Z,97864.58
2023-10-07T11:32:40.424Z,97863.42
2023-10-07T11:35:21.820Z,97851.88
2023-10-07T11:37:59.073Z,97848.98
2023-10-07T11:40:32.473Z,97841.73
2023-10-07T11:43:09.405Z,97841.45
2023-10-07T11:45:43.839Z,97836.92
2023-10-07T11:48:15.744Z,97839.31
2023-10-07T11:50:48.397Z,97840.11
2023-10-07T11:53:21.580Z,97842.47
2023-10-07T11:55:52.874Z,97835.27
2023-10-07T11:58:25.637Z,97838.55
2023-10-07T12:00:56.778Z,97844.85
2023-10-07T12:03:27.890Z,97844.17
2023-10-07T12:05:59.955Z,97845.02
2023-10-07T12:08:31.202Z,97845.52
2023-10-07T12:11:02.294Z,97841.60
2023-10-07T12:13:33.748Z,97833.89
2023-10-07T12:16:06.482Z,97816.70
2023-10-07T12:18:38.976Z,97811.50
2023-10-07T12:21:13.573Z,97825.84
2023-10-07T12:23:46.119Z,97814.83
2023-10-07T12:26:18.557Z,97819.98
2023-10-07T12:28:51.195Z,97822.73
2023-10-07T12:31:25.467Z,97820.58
2023-10-07T12:33:57.543Z,97815.86
2023-10-07T12:36:31.527Z,97817.58
2023-10-07T12:39:02.618Z,97819.04
2023-10-07T12:41:33.963Z,97822.19
2023-10-07T12:44:05.382Z,97818.38
2023-10-07T12:46:36.763Z,97823.90
2023-10-07T12:49:11.828Z,97822.09
2023-10-07T12:51:45.101Z,97826.66
2023-10-07T12:54:18.384Z,97829.05
2023-10-07T12:56:49.682Z,97820.88
2023-10-07T12:59:23.370Z,97806.35
2023-10-07T13:01:57.538Z,97812.86
2023-10-07T13:04:35.983Z,97816.34
2023-10-07T13:07:11.431Z,97810.52
2023-10-07T13:09:44.292Z,97812.27
2023-10-07T13:12:17.137Z,97803.15
2023-10-07T13:14:48.211Z,97802.29
2023-10-07T13:17:21.681Z,97795.28
2023-10-07T13:19:53.322Z,97792.15
2023-10-07T13:22:25.068Z,97784.48
2023-10-07T13:24:56.137Z,97774.30
2023-10-07T13:27:27.764Z,97759.24
2023-10-07T13:29:58.997Z,97759.46
2023-10-07T13:32:31.152Z,97762.98
2023-10-07T13:35:02.360Z,97763.86
2023-10-07T13:37:35.029Z,97759.59
2023-10-07T13:40:08.868Z,97750.14
2023-10-07T13:42:39.963Z,97744.38
2023-10-07T13:45:15.303Z,97750.13
2023-10-07T13:47:46.849Z,97752.26
2023-10-07T13:50:22.036Z,97755.91
2023-10-07T13:53:00.292Z,97756.09
2023-10-07T13:55:56.299Z,97752.02
2023-10-07T13:58:27.761Z,97748.29
2023-10-07T14:00:59.771Z,97741.84
2023-10-07T14:03:37.464Z,97734.75
2023-10-07T14:06:08.879Z,97729.60
2023-10-07T14:08:44.471Z,97723.95
2023-10-07T14:11:15.810Z,97723.34
2023-10-07T14:13:48.384Z,97722.08
2023-10-07T14:16:21.741Z,97719.11
2023-10-07T14:18:53.048Z,97716.45
2023-10-07T14:21:26.829Z,97711.10
2023-10-07T14:24:04.692Z,97710.05
2023-10-07T14:26:36.475Z,97710.47
2023-10-07T14:29:08.186Z,97697.27
2023-10-07T14:31:44.478Z,97695.53
2023-10-07T14:34:17.995Z,97690.00
2023-10-07T14:36:50.238Z,97688.05
2023-10-07T14:39:26.388Z,97682.40
2023-10-07T14:42:00.494Z,97680.48
2023-10-07T14:44:33.037Z,97687.04
2023-10-07T14:47:05.619Z,97685.16
2023-10-07T14:49:37.587Z,97696.08
2023-10-07T14:52:09.037Z,97703.27
2023-10-07T14:54:40.342Z,97700.55
2023-10-07T14:57:13.834Z,97702.29
2023-10-07T14:59:45.413Z,97690.52
2023-10-07T15:02:16.525Z,97698.98
2023-10-07T15:04:48.026Z,97697.92
2023-10-07T15:07:21.774Z,97695.11
2023-10-07T15:09:57.211Z,97697.17
2023-10-07T15:12:28.457Z,97707.33
2023-10-07T15:14:59.634Z,97706.30
2023-10-07T15:17:30.602Z,97705.11
2023-10-07T15:20:02.165Z,97706.31
2023-10-07T15:22:34.044Z,97704.92
2023-10-07T15:25:05.432Z,97701.83
2023-10-07T15:27:36.984Z,97704.08
2023-10-07T15:30:10.698Z,97712.71
2023-10-07T15:32:44.759Z,97714.56
2023-10-07T15:35:15.802Z,97721.41
2023-10-07T15:37:47.696Z,97728.48
2023-10-07T15:40:19.720Z,97735.25
2023-10-07T15:42:51.205Z,97741.46
2023-10-07T15:45:22.206Z,97733.83
2023-10-07T15:47:54.420Z,97731.70
2023-10-07T15:50:25.599Z,97733.31
2023-10-07T15:52:56.707Z,97725.77
2023-10-07T15:55:28.172Z,97725.87
2023-10-07T15:57:59.799Z,97724.50
2023-10-07T16:00:34.039Z,97716.05
2023-10-07T16:03:08.030Z,97703.29
2023-10-07T16:05:40.345Z,97707.91
2023-10-07T16:08:11.989Z,97705.38
2023-10-07T16:10:44.618Z,97694.08
2023-10-07T16:13:15.790Z,97693.79
2023-10-07T16:15:47.887Z,97687.42
2023-10-07T16:18:19.647Z,97690.43
2023-10-07T16:20:51.056Z,97691.55
2023-10-07T16:23:24.759Z,97689.83
2023-10-07T16:25:56.369Z,97686.14
2023-10-07T16:28:29.864Z,97685.52
2023-10-07T16:31:01.889Z,97694.20
2023-10-07T16:33:33.539Z,97695.01
2023-10-07T16:36:07.893Z,97696.09
2023-10-07T16:38:40.827Z,97690.30
2023-10-07T16:41:15.869Z,97689.70
2023-10-07T16:43:47.581Z,97691.02
2023-10-07T16:46:20.541Z,97709.05
2023-10-07T16:48:52.402Z,97710.00
2023-10-07T16:51:24.062Z,97708.61
2023-10-07T16:53:55.494Z,97709.00
2023-10-07T16:56:26.999Z,97705.41
2023-10-07T16:58:59.768Z,97703.95
2023-10-07T17:01:31.221Z,97710.05
2023-10-07T17:04:02.489Z,97710.73
2023-10-07T17:06:33.978Z,97707.78
2023-10-07T17:09:06.448Z,97704.23
2023-10-07T17:11:37.444Z,97711.32
2023-10-07T17:14:09.796Z,97716.77
2023-10-07T17:16:40.997Z,97705.96
2023-10-07T17:19:13.486Z,97708.10
2023-10-07T17:21:44.874Z,97712.60
2023-10-07T17:24:16.263Z,97713.80
2023-10-07T17:26:47.867Z,97710.88
2023-10-07T17:29:18.948Z,97704.83
2023-10-07T17:31:50.916Z,97706.69
2023-10-07T17:34:22.765Z,97704.75
2023-10-07T17:36:54.223Z,97709.17
2023-10-07T17:39:26.839Z,97702.98
2023-10-07T17:41:58.458Z,97702.38
2023-10-07T17:44:29.531Z,97706.74
2023-10-07T17:47:00.587Z,97700.42
2023-10-07T17:49:31.577Z,97704.97
2023-10-07T17:52:04.483Z,97707.16
2023-10-07T17:54:35.732Z,97700.44
2023-10-07T17:57:07.825Z,97693.38
2023-10-07T17:59:39.495Z,97693.58
2023-10-07T18:02:10.986Z,97703.82
2023-10-07T18:04:42.096Z,97709.68
2023-10-07T18:07:13.503Z,97705.34
2023-10-07T18:09:45.332Z,97703.86
2023-10-07T18:12:16.960Z,97701.86
2023-10-07T18:14:48.389Z,97705.27
2023-10-07T18:17:19.581Z,97700.32
2023-10-07T18:19:50.961Z,97703.88
2023-10-07T18:22:22.109Z,97709.83
2023-10-07T18:24:53.312Z,97704.33
2023-10-07T18:27:24.350Z,97704.53
2023-10-07T18:29:55.544Z,97701.58
2023-10-07T18:32:26.693Z,97705.41
2023-10-07T18:34:58.051Z,97713.73
2023-10-07T18:37:29.915Z,97707.25
2023-10-07T18:40:02.296Z,97706.04
2023-10-07T18:42:36.394Z,97702.91
2023-10-07T18:45:11.715Z,97702.20
2023-10-07T18:47:43.051Z,97695.02
2023-10-07T18:50:16.291Z,97697.12
2023-10-07T18:52:48.210Z,97701.31
2023-10-07T18:55:19.689Z,97704.48
2023-10-07T18:57:50.917Z,97698.36
2023-10-07T19:00:22.210Z,97690.67
2023-10-07T19:02:53.435Z,97691.55
2023-10-07T19:05:24.723Z,97689.21
2023-10-07T19:07:57.508Z,97690.00
2023-10-07T19:10:28.802Z,97689.46
2023-10-07T19:13:00.257Z,97689.23
2023-10-07T19:15:31.444Z,97690.63
2023-10-07T19:18:02.742Z,97695.27
2023-10-07T19:20:34.060Z,97703.69
2023-10-07T19:23:06.070Z,97700.52
2023-10-07T19:25:37.286Z,97699.71
2023-10-07T19:28:09.941Z,97701.36
2023-10-07T19:30:45.106Z,97701.44
2023-10-07T19:33:16.458Z,97707.02
2023-10-07T19:35:47.786Z,97713.38
2023-10-07T19:38:19.709Z,97713.59
2023-10-07T19:40:51.507Z,97711.36
2023-10-07T19:43:23.246Z,97708.86
2023-10-07T19:45:54.627Z,97706.00
2023-10-07T19:48:25.643Z,97696.30
2023-10-07T19:51:00.316Z,97697.83
2023-10-07T19:53:33.252Z,97706.42
2023-10-07T19:56:04.953Z,97700.48
2023-10-07T19:58:36.160Z,97694.03
2023-10-07T20:01:09.068Z,97689.61
2023-10-07T20:03:40.370Z,97689.88
2023-10-07T20:06:12.922Z,97684.15
2023-10-07T20:08:44.164Z,97678.47
2023-10-07T20:11:15.309Z,97678.60
2023-10-07T20:13:48.072Z,97680.27
2023-10-07T20:16:19.296Z,97674.00
2023-10-07T20:18:50.436Z,97671.19
2023-10-07T20:21:23.850Z,97669.12
2023-10-07T20:23:55.301Z,97671.12
2023-10-07T20:26:28.062Z,97668.94
2023-10-07T20:29:00.205Z,97663.27
2023-10-07T20:31:31.698Z,97662.04
2023-10-07T20:34:03.095Z,97662.92
2023-10-07T20:36:34.165Z,97665.52
2023-10-07T20:39:11.107Z,97667.19
2023-10-07T20:41:42.660Z,97670.73
2023-10-07T20:44:14.578Z,97670.33
2023-10-07T20:46:45.980Z,97669.35
2023-10-07T20:49:17.197Z,97668.86
2023-10-07T20:51:49.472Z,97663.23
2023-10-07T20:54:20.602Z,97666.46
2023-10-07T20:56:51.902Z,97667.14
2023-10-07T20:59:22.961Z,97663.98
2023-10-07T21:01:54.303Z,97660.97
2023-10-07T21:04:26.115Z,97653.05
2023-10-07T21:06:57.422Z,97652.55
2023-10-07T21:09:28.782Z,97650.08
2023-10-07T21:12:00.548Z,97653.45
2023-10-07T21:14:31.723Z,97650.69
2023-10-07T21:17:03.646Z,97662.19
2023-10-07T21:19:35.185Z,97659.66
2023-10-07T21:22:08.460Z,97659.80
2023-10-07T21:24:39.571Z,97651.07
2023-10-07T21:27:10.666Z,97650.48
2023-10-07T21:29:42.909Z,97655.10
2023-10-07T21:32:14.048Z,97655.79
2023-10-07T21:34:45.140Z,97650.19
2023-10-07T21:37:16.792Z,97647.19
2023-10-07T21:39:48.486Z,97643.19
2023-10-07T21:42:19.505Z,97644.45
2023-10-07T21:44:51.084Z,97645.19
2023-10-07T21:47:22.273Z,97642.79
2023-10-07T21:49:53.542Z,97642.67
2023-10-07T21:52:24.654Z,97649.65
2023-10-07T21:54:56.155Z,97650.70
2023-10-07T21:57:27.492Z,97653.02
2023-10-07T21:59:59.339Z,97650.05
2023-10-07T22:02:33.804Z,97647.59
2023-10-07T22:05:07.568Z,97654.44
2023-10-07T22:07:38.866Z,97644.61
2023-10-07T22:10:11.682Z,97643.10
2023-10-07T22:12:44.176Z,97641.60
2023-10-07T22:15:15.649Z,97640.48
2023-10-07T22:17:47.321Z,97631.80
2023-10-07T22:20:20.943Z,97631.88
2023-10-07T22:22:52.801Z,97633.30
2023-10-07T22:25:29.371Z,97631.81
2023-10-07T22:28:02.072Z,97625.95
2023-10-07T22:30:33.275Z,97626.84
2023-10-07T22:33:05.523Z,97625.06
2023-10-07T22:35:43.054Z,97618.39
2023-10-07T22:38:19.019Z,97618.62
2023-10-07T22:40:59.352Z,97614.98
2023-10-07T22:43:36.633Z,97612.15
2023-10-07T22:46:09.147Z,97606.66
2023-10-07T22:48:45.610Z,97606.45
2023-10-07T22:51:24.421Z,97609.71
2023-10-07T22:54:03.138Z,97601.58
2023-10-07T22:56:34.760Z,97602.66
2023-10-07T22:59:07.242Z,97598.29
2023-10-07T23:01:46.301Z,97594.51
2023-10-07T23:04:18.294Z,97593.06
2023-10-07T23:07:04.400Z,97588.61
2023-10-07T23:09:44.554Z,97589.63
2023-10-07T23:12:18.094Z,97594.35
2023-10-07T23:14:50.091Z,97593.08
2023-10-07T23:17:27.531Z,97595.58
2023-10-07T23:20:08.419Z,97596.23
2023-10-07T23:22:47.055Z,97595.36
2023-10-07T23:25:22.904Z,97597.30
2023-10-07T23:27:54.108Z,97595.20
2023-10-07T23:30:29.504Z,97592.92
2023-10-07T23:33:04.244Z,97594.40
2023-10-07T23:35:42.597Z,97601.15
2023-10-07T23:38:20.044Z,97604.40
2023-10-07T23:40:54.178Z,97597.91
2023-10-07T23:43:25.714Z,97599.74
2023-10-07T23:45:58.617Z,97596.17
2023-10-07T23:48:29.987Z,97599.58
2023-10-07T23:51:02.749Z,97601.56
2023-10-07T23:53:34.945Z,97609.22
2023-10-07T23:56:10.453Z,97604.77
2023-10-07T23:58:50.670Z,97608.63
